createdAt,value
2019-05-16T00:00:01.640Z,1016.27
2019-05-16T00:00:40.127Z,1016.25
2019-05-16T00:01:12.848Z,1016.25
2019-05-16T00:01:48.760Z,1016.26
2019-05-16T00:02:23.330Z,1016.22
2019-05-16T00:02:59.121Z,1016.24
2019-05-16T00:03:34.342Z,1016.21
2019-05-16T00:04:09.464Z,1016.22
2019-05-16T00:04:44.767Z,1016.24
2019-05-16T00:05:20.557Z,1016.20
2019-05-16T00:05:58.247Z,1016.22
2019-05-16T00:06:31.570Z,1016.23
2019-05-16T00:07:08.115Z,1016.20
2019-05-16T00:07:42.557Z,1016.22
2019-05-16T00:08:17.874Z,1016.23
2019-05-16T00:08:53.271Z,1016.22
2019-05-16T00:09:28.655Z,1016.19
2019-05-16T00:10:03.856Z,1016.24
2019-05-16T00:10:39.240Z,1016.23
2019-05-16T00:11:14.450Z,1016.20
2019-05-16T00:11:49.647Z,1016.23
2019-05-16T00:12:25.249Z,1016.24
2019-05-16T00:13:00.421Z,1016.23
2019-05-16T00:13:35.736Z,1016.19
2019-05-16T00:14:11.309Z,1016.21
2019-05-16T00:14:48.807Z,1016.20
2019-05-16T00:15:22.343Z,1016.20
2019-05-16T00:15:58.746Z,1016.19
2019-05-16T00:16:33.051Z,1016.20
2019-05-16T00:17:08.522Z,1016.17
2019-05-16T00:17:43.527Z,1016.19
2019-05-16T00:18:18.906Z,1016.16
2019-05-16T00:18:54.113Z,1016.18
2019-05-16T00:19:29.416Z,1016.17
2019-05-16T00:20:04.604Z,1016.12
2019-05-16T00:20:39.899Z,1016.14
2019-05-16T00:21:15.283Z,1016.18
2019-05-16T00:21:50.710Z,1016.12
2019-05-16T00:22:25.914Z,1016.14
2019-05-16T00:23:01.217Z,1016.14
2019-05-16T00:23:37.848Z,1016.13
2019-05-16T00:24:11.910Z,1016.09
2019-05-16T00:24:48.756Z,1016.09
2019-05-16T00:25:22.722Z,1016.10
2019-05-16T00:25:58.609Z,1016.09
2019-05-16T00:26:33.501Z,1016.09
2019-05-16T00:27:08.924Z,1016.13
2019-05-16T00:27:44.467Z,1016.09
2019-05-16T00:28:20.151Z,1016.14
2019-05-16T00:28:55.476Z,1016.12
2019-05-16T00:29:30.847Z,1016.12
2019-05-16T00:30:06.058Z,1016.08
2019-05-16T00:30:41.494Z,1016.15
2019-05-16T00:31:18.355Z,1016.13
2019-05-16T00:31:52.308Z,1016.14
2019-05-16T00:32:28.177Z,1016.12
2019-05-16T00:33:02.943Z,1016.10
2019-05-16T00:33:38.154Z,1016.10
2019-05-16T00:34:13.433Z,1016.13
2019-05-16T00:34:48.724Z,1016.11
2019-05-16T00:35:23.838Z,1016.11
2019-05-16T00:36:03.485Z,1016.08
2019-05-16T00:36:34.634Z,1016.07
2019-05-16T00:37:10.021Z,1016.11
2019-05-16T00:37:45.318Z,1016.08
2019-05-16T00:38:20.763Z,1016.07
2019-05-16T00:38:57.726Z,1016.07
2019-05-16T00:39:31.746Z,1016.06
2019-05-16T00:40:08.236Z,1016.06
2019-05-16T00:40:42.727Z,1016.08
2019-05-16T00:41:17.901Z,1016.02
2019-05-16T00:41:53.496Z,1016.03
2019-05-16T00:42:28.990Z,1015.98
2019-05-16T00:43:04.389Z,1016.00
2019-05-16T00:43:39.704Z,1016.02
2019-05-16T00:44:15.419Z,1016.00
2019-05-16T00:44:50.833Z,1015.99
2019-05-16T00:45:29.165Z,1016.00
2019-05-16T00:46:01.720Z,1015.98
2019-05-16T00:46:38.522Z,1015.97
2019-05-16T00:47:12.127Z,1015.99
2019-05-16T00:47:47.933Z,1016.00
2019-05-16T00:48:22.840Z,1016.02
2019-05-16T00:48:58.951Z,1015.95
2019-05-16T00:49:33.573Z,1015.92
2019-05-16T00:50:09.155Z,1015.97
2019-05-16T00:50:44.575Z,1015.93
2019-05-16T00:51:20.085Z,1015.93
2019-05-16T00:51:55.282Z,1015.95
2019-05-16T00:52:30.700Z,1015.94
2019-05-16T00:53:05.990Z,1015.88
2019-05-16T00:53:41.295Z,1015.87
2019-05-16T00:54:18.452Z,1015.87
2019-05-16T00:54:51.935Z,1015.82
2019-05-16T00:55:28.419Z,1015.86
2019-05-16T00:56:02.842Z,1015.87
2019-05-16T00:56:38.329Z,1015.84
2019-05-16T00:57:13.443Z,1015.85
2019-05-16T00:57:48.933Z,1015.83
2019-05-16T00:58:24.450Z,1015.83
2019-05-16T00:58:59.645Z,1015.82
2019-05-16T00:59:35.293Z,1015.82
2019-05-16T01:00:10.687Z,1015.80
2019-05-16T01:00:49.164Z,1015.77
2019-05-16T01:01:21.294Z,1015.79
2019-05-16T01:01:58.632Z,1015.79
2019-05-16T01:02:31.833Z,1015.77
2019-05-16T01:03:08.113Z,1015.79
2019-05-16T01:03:42.534Z,1015.75
2019-05-16T01:04:18.234Z,1015.74
2019-05-16T01:04:53.660Z,1015.80
2019-05-16T01:05:29.149Z,1015.79
2019-05-16T01:06:15.644Z,1015.76
2019-05-16T01:06:39.984Z,1015.81
2019-05-16T01:07:15.307Z,1015.77
2019-05-16T01:07:50.891Z,1015.78
2019-05-16T01:08:27.895Z,1015.76
2019-05-16T01:09:01.490Z,1015.74
2019-05-16T01:09:38.559Z,1015.73
2019-05-16T01:10:12.615Z,1015.71
2019-05-16T01:10:51.110Z,1015.69
2019-05-16T01:11:23.732Z,1015.68
2019-05-16T01:11:59.756Z,1015.68
2019-05-16T01:12:34.953Z,1015.66
2019-05-16T01:13:10.468Z,1015.65
2019-05-16T01:13:45.738Z,1015.63
2019-05-16T01:14:21.132Z,1015.60
2019-05-16T01:14:58.274Z,1015.56
2019-05-16T01:15:31.861Z,1015.59
2019-05-16T01:16:08.690Z,1015.59
2019-05-16T01:16:42.252Z,1015.60
2019-05-16T01:17:18.167Z,1015.58
2019-05-16T01:17:53.015Z,1015.57
2019-05-16T01:18:28.942Z,1015.54
2019-05-16T01:19:03.983Z,1015.59
2019-05-16T01:19:39.375Z,1015.54
2019-05-16T01:20:14.879Z,1015.53
2019-05-16T01:20:50.189Z,1015.51
2019-05-16T01:21:25.487Z,1015.51
2019-05-16T01:22:00.666Z,1015.49
2019-05-16T01:22:35.674Z,1015.48
2019-05-16T01:23:10.848Z,1015.48
2019-05-16T01:23:48.071Z,1015.46
2019-05-16T01:24:21.469Z,1015.45
2019-05-16T01:24:58.307Z,1015.45
2019-05-16T01:25:32.385Z,1015.48
2019-05-16T01:26:07.915Z,1015.46
2019-05-16T01:26:42.915Z,1015.50
2019-05-16T01:27:18.598Z,1015.46
2019-05-16T01:27:53.908Z,1015.49
2019-05-16T01:28:29.208Z,1015.46
2019-05-16T01:29:04.429Z,1015.48
2019-05-16T01:29:39.721Z,1015.49
2019-05-16T01:30:15.030Z,1015.50
2019-05-16T01:30:50.425Z,1015.50
2019-05-16T01:31:27.823Z,1015.47
2019-05-16T01:32:01.065Z,1015.51
2019-05-16T01:32:39.298Z,1015.51
2019-05-16T01:33:12.374Z,1015.49
2019-05-16T01:33:48.079Z,1015.52
2019-05-16T01:34:23.477Z,1015.48
2019-05-16T01:34:59.054Z,1015.49
2019-05-16T01:35:34.399Z,1015.49
2019-05-16T01:36:09.476Z,1015.50
2019-05-16T01:36:45.113Z,1015.46
2019-05-16T01:37:20.257Z,1015.43
2019-05-16T01:37:57.959Z,1015.44
2019-05-16T01:38:31.162Z,1015.46
2019-05-16T01:39:07.997Z,1015.47
2019-05-16T01:39:42.253Z,1015.44
2019-05-16T01:40:18.882Z,1015.41
2019-05-16T01:40:52.736Z,1015.38
2019-05-16T01:41:28.493Z,1015.41
2019-05-16T01:42:03.196Z,1015.41
2019-05-16T01:42:38.515Z,1015.42
2019-05-16T01:43:13.894Z,1015.42
2019-05-16T01:43:49.169Z,1015.40
2019-05-16T01:44:24.679Z,1015.42
2019-05-16T01:45:00.086Z,1015.40
2019-05-16T01:45:35.371Z,1015.41
2019-05-16T01:46:10.581Z,1015.40
2019-05-16T01:46:47.944Z,1015.39
2019-05-16T01:47:21.419Z,1015.39
2019-05-16T01:47:58.614Z,1015.39
2019-05-16T01:48:31.997Z,1015.37
2019-05-16T01:49:08.230Z,1015.40
2019-05-16T01:49:43.000Z,1015.42
2019-05-16T01:50:18.393Z,1015.43
2019-05-16T01:50:53.629Z,1015.41
2019-05-16T01:51:28.949Z,1015.41
2019-05-16T01:52:04.320Z,1015.37
2019-05-16T01:52:39.746Z,1015.35
2019-05-16T01:53:15.113Z,1015.38
2019-05-16T01:53:50.521Z,1015.41
2019-05-16T01:54:28.131Z,1015.37
2019-05-16T01:55:01.118Z,1015.38
2019-05-16T01:55:37.947Z,1015.40
2019-05-16T01:56:11.823Z,1015.38
2019-05-16T01:56:48.125Z,1015.39
2019-05-16T01:57:22.506Z,1015.41
2019-05-16T01:57:58.476Z,1015.37
2019-05-16T01:58:33.553Z,1015.39
2019-05-16T01:59:08.999Z,1015.35
2019-05-16T01:59:44.151Z,1015.33
2019-05-16T02:00:25.034Z,1015.35
2019-05-16T02:01:06.061Z,1015.37
2019-05-16T02:01:30.560Z,1015.33
2019-05-16T02:02:08.183Z,1015.31
2019-05-16T02:02:41.152Z,1015.33
2019-05-16T02:03:18.821Z,1015.31
2019-05-16T02:03:52.071Z,1015.32
2019-05-16T02:04:28.637Z,1015.29
2019-05-16T02:05:02.531Z,1015.28
2019-05-16T02:05:38.742Z,1015.29
2019-05-16T02:06:13.010Z,1015.27
2019-05-16T02:06:54.270Z,1015.30
2019-05-16T02:07:23.385Z,1015.24
2019-05-16T02:07:58.908Z,1015.24
2019-05-16T02:08:34.755Z,1015.24
2019-05-16T02:09:11.578Z,1015.27
2019-05-16T02:09:47.556Z,1015.25
2019-05-16T02:10:20.926Z,1015.23
2019-05-16T02:10:58.182Z,1015.21
2019-05-16T02:11:31.715Z,1015.20
2019-05-16T02:12:08.117Z,1015.22
2019-05-16T02:12:42.404Z,1015.22
2019-05-16T02:13:18.026Z,1015.21
2019-05-16T02:13:53.119Z,1015.22
2019-05-16T02:14:28.520Z,1015.16
2019-05-16T02:15:03.807Z,1015.15
2019-05-16T02:15:39.112Z,1015.14
2019-05-16T02:16:14.291Z,1015.15
2019-05-16T02:16:49.988Z,1015.09
2019-05-16T02:17:25.366Z,1015.11
2019-05-16T02:18:00.764Z,1015.12
2019-05-16T02:18:38.067Z,1015.08
2019-05-16T02:19:11.988Z,1015.12
2019-05-16T02:19:48.559Z,1015.11
2019-05-16T02:20:22.852Z,1015.09
2019-05-16T02:21:01.172Z,1015.07
2019-05-16T02:21:33.378Z,1015.08
2019-05-16T02:22:08.949Z,1015.09
2019-05-16T02:22:44.071Z,1015.08
2019-05-16T02:23:19.451Z,1015.05
2019-05-16T02:23:54.853Z,1015.05
2019-05-16T02:24:30.155Z,1015.09
2019-05-16T02:25:07.636Z,1015.07
2019-05-16T02:25:40.967Z,1015.09
2019-05-16T02:26:18.906Z,1015.08
2019-05-16T02:26:52.429Z,1015.05
2019-05-16T02:27:28.688Z,1015.06
2019-05-16T02:28:02.431Z,1015.05
2019-05-16T02:28:40.846Z,1015.06
2019-05-16T02:29:13.736Z,1015.05
2019-05-16T02:29:50.541Z,1015.05
2019-05-16T02:30:23.714Z,1015.05
2019-05-16T02:31:01.356Z,1015.04
2019-05-16T02:31:34.595Z,1014.99
2019-05-16T02:32:11.494Z,1014.99
2019-05-16T02:32:45.188Z,1014.99
2019-05-16T02:33:21.446Z,1015.02
2019-05-16T02:33:55.675Z,1015.06
2019-05-16T02:34:31.204Z,1015.05
2019-05-16T02:35:06.600Z,1015.04
2019-05-16T02:35:41.933Z,1015.07
2019-05-16T02:36:17.228Z,1015.04
2019-05-16T02:37:10.324Z,1015.03
2019-05-16T02:37:33.363Z,1015.07
2019-05-16T02:38:02.745Z,1015.04
2019-05-16T02:38:38.238Z,1015.03
2019-05-16T02:39:13.448Z,1015.01
2019-05-16T02:39:51.442Z,1015.04
2019-05-16T02:40:23.977Z,1015.06
2019-05-16T02:41:02.624Z,1015.00
2019-05-16T02:41:34.474Z,1015.02
2019-05-16T02:42:11.948Z,1015.04
2019-05-16T02:42:45.291Z,1015.01
2019-05-16T02:43:25.279Z,1015.02
2019-05-16T02:43:55.592Z,1015.05
2019-05-16T02:44:31.719Z,1015.03
2019-05-16T02:45:06.407Z,1015.02
2019-05-16T02:45:41.720Z,1015.02
2019-05-16T02:46:17.030Z,1015.06
2019-05-16T02:46:52.454Z,1015.00
2019-05-16T02:47:27.853Z,1015.02
2019-05-16T02:48:02.951Z,1015.02
2019-05-16T02:48:40.831Z,1015.01
2019-05-16T02:49:13.877Z,1014.99
2019-05-16T02:49:50.547Z,1014.99
2019-05-16T02:50:24.458Z,1014.99
2019-05-16T02:51:01.829Z,1014.99
2019-05-16T02:51:34.979Z,1014.97
2019-05-16T02:52:10.913Z,1014.99
2019-05-16T02:52:45.766Z,1014.98
2019-05-16T02:53:22.558Z,1014.98
2019-05-16T02:53:56.427Z,1014.99
2019-05-16T02:54:31.766Z,1014.97
2019-05-16T02:55:07.330Z,1014.98
2019-05-16T02:55:42.654Z,1014.96
2019-05-16T02:56:20.919Z,1014.99
2019-05-16T02:56:53.476Z,1014.96
2019-05-16T02:57:31.340Z,1014.94
2019-05-16T02:58:04.068Z,1014.97
2019-05-16T02:58:44.286Z,1014.95
2019-05-16T02:59:14.661Z,1014.95
2019-05-16T02:59:50.954Z,1014.95
2019-05-16T03:00:25.247Z,1014.94
2019-05-16T03:01:01.898Z,1014.96
2019-05-16T03:01:36.098Z,1014.92
2019-05-16T03:02:11.818Z,1014.91
2019-05-16T03:02:46.782Z,1014.91
2019-05-16T03:03:22.195Z,1014.92
2019-05-16T03:03:57.373Z,1014.87
2019-05-16T03:04:32.969Z,1014.91
2019-05-16T03:05:11.547Z,1014.89
2019-05-16T03:05:43.773Z,1014.90
2019-05-16T03:06:21.063Z,1014.87
2019-05-16T03:06:54.683Z,1014.93
2019-05-16T03:07:37.665Z,1014.87
2019-05-16T03:08:04.985Z,1014.90
2019-05-16T03:08:41.143Z,1014.84
2019-05-16T03:09:15.667Z,1014.84
2019-05-16T03:09:51.479Z,1014.79
2019-05-16T03:10:26.464Z,1014.81
2019-05-16T03:11:01.979Z,1014.80
2019-05-16T03:11:37.358Z,1014.78
2019-05-16T03:12:12.710Z,1014.77
2019-05-16T03:12:50.876Z,1014.77
2019-05-16T03:13:23.388Z,1014.77
2019-05-16T03:14:00.566Z,1014.75
2019-05-16T03:14:34.079Z,1014.75
2019-05-16T03:15:10.997Z,1014.74
2019-05-16T03:15:44.770Z,1014.72
2019-05-16T03:16:22.278Z,1014.73
2019-05-16T03:16:55.547Z,1014.72
2019-05-16T03:17:31.755Z,1014.70
2019-05-16T03:18:05.969Z,1014.72
2019-05-16T03:18:41.601Z,1014.68
2019-05-16T03:19:16.547Z,1014.69
2019-05-16T03:19:51.909Z,1014.66
2019-05-16T03:20:27.028Z,1014.68
2019-05-16T03:21:02.337Z,1014.66
2019-05-16T03:21:37.628Z,1014.68
2019-05-16T03:22:12.819Z,1014.67
2019-05-16T03:22:51.712Z,1014.65
2019-05-16T03:23:23.749Z,1014.69
2019-05-16T03:24:00.886Z,1014.67
2019-05-16T03:24:34.616Z,1014.68
2019-05-16T03:25:11.546Z,1014.67
2019-05-16T03:25:45.217Z,1014.63
2019-05-16T03:26:20.982Z,1014.65
2019-05-16T03:26:55.530Z,1014.62
2019-05-16T03:27:30.914Z,1014.65
2019-05-16T03:28:06.066Z,1014.66
2019-05-16T03:28:41.537Z,1014.67
2019-05-16T03:29:16.745Z,1014.67
2019-05-16T03:29:52.230Z,1014.66
2019-05-16T03:30:27.741Z,1014.69
2019-05-16T03:31:05.348Z,1014.64
2019-05-16T03:31:43.644Z,1014.68
2019-05-16T03:32:14.451Z,1014.66
2019-05-16T03:32:54.147Z,1014.64
2019-05-16T03:33:32.247Z,1014.65
2019-05-16T03:34:05.812Z,1014.63
2019-05-16T03:34:35.012Z,1014.63
2019-05-16T03:35:14.924Z,1014.65
2019-05-16T03:35:45.397Z,1014.61
2019-05-16T03:36:25.094Z,1014.60
2019-05-16T03:36:55.793Z,1014.57
2019-05-16T03:37:31.088Z,1014.59
2019-05-16T03:38:06.333Z,1014.61
2019-05-16T03:38:41.570Z,1014.66
2019-05-16T03:39:16.620Z,1014.62
2019-05-16T03:39:51.890Z,1014.64
2019-05-16T03:40:27.203Z,1014.63
2019-05-16T03:41:02.790Z,1014.63
2019-05-16T03:41:41.226Z,1014.60
2019-05-16T03:42:13.575Z,1014.61
2019-05-16T03:42:51.686Z,1014.57
2019-05-16T03:43:23.934Z,1014.57
2019-05-16T03:44:01.301Z,1014.57
2019-05-16T03:44:34.649Z,1014.61
2019-05-16T03:45:10.754Z,1014.63
2019-05-16T03:45:45.754Z,1014.61
2019-05-16T03:46:21.470Z,1014.64
2019-05-16T03:46:56.439Z,1014.63
2019-05-16T03:47:31.702Z,1014.66
2019-05-16T03:48:07.032Z,1014.65
2019-05-16T03:48:42.454Z,1014.64
2019-05-16T03:49:17.805Z,1014.67
2019-05-16T03:49:53.198Z,1014.65
2019-05-16T03:50:30.683Z,1014.67
2019-05-16T03:51:04.408Z,1014.62
2019-05-16T03:51:41.405Z,1014.63
2019-05-16T03:52:15.299Z,1014.65
2019-05-16T03:52:51.115Z,1014.65
2019-05-16T03:53:26.244Z,1014.63
2019-05-16T03:54:02.787Z,1014.67
2019-05-16T03:54:36.967Z,1014.65
2019-05-16T03:55:12.234Z,1014.64
2019-05-16T03:55:47.546Z,1014.67
2019-05-16T03:56:23.435Z,1014.70
2019-05-16T03:57:00.498Z,1014.67
2019-05-16T03:57:33.927Z,1014.66
2019-05-16T03:58:11.700Z,1014.68
2019-05-16T03:58:44.605Z,1014.67
2019-05-16T03:59:21.591Z,1014.67
2019-05-16T03:59:55.130Z,1014.68
2019-05-16T04:00:31.644Z,1014.66
2019-05-16T04:01:06.135Z,1014.68
2019-05-16T04:01:41.436Z,1014.67
2019-05-16T04:02:16.642Z,1014.67
2019-05-16T04:02:52.395Z,1014.65
2019-05-16T04:03:28.794Z,1014.64
2019-05-16T04:04:03.229Z,1014.60
2019-05-16T04:04:41.489Z,1014.63
2019-05-16T04:05:13.936Z,1014.63
2019-05-16T04:05:52.060Z,1014.61
2019-05-16T04:06:24.416Z,1014.58
2019-05-16T04:07:01.385Z,1014.60
2019-05-16T04:07:35.017Z,1014.58
2019-05-16T04:08:18.756Z,1014.61
2019-05-16T04:08:45.392Z,1014.55
2019-05-16T04:09:21.061Z,1014.58
2019-05-16T04:09:55.600Z,1014.57
2019-05-16T04:10:31.085Z,1014.57
2019-05-16T04:11:06.091Z,1014.55
2019-05-16T04:11:42.556Z,1014.57
2019-05-16T04:12:17.125Z,1014.54
2019-05-16T04:12:52.399Z,1014.56
2019-05-16T04:13:27.708Z,1014.54
2019-05-16T04:14:03.097Z,1014.53
2019-05-16T04:14:40.907Z,1014.57
2019-05-16T04:15:14.500Z,1014.54
2019-05-16T04:15:52.550Z,1014.57
2019-05-16T04:16:24.997Z,1014.57
2019-05-16T04:17:01.293Z,1014.58
2019-05-16T04:17:36.295Z,1014.50
2019-05-16T04:18:11.530Z,1014.56
2019-05-16T04:18:47.121Z,1014.58
2019-05-16T04:19:22.526Z,1014.56
2019-05-16T04:20:01.524Z,1014.57
2019-05-16T04:20:33.314Z,1014.56
2019-05-16T04:21:11.645Z,1014.57
2019-05-16T04:21:44.403Z,1014.58
2019-05-16T04:22:21.474Z,1014.57
2019-05-16T04:22:55.175Z,1014.59
2019-05-16T04:23:31.273Z,1014.58
2019-05-16T04:24:05.897Z,1014.60
2019-05-16T04:24:41.793Z,1014.58
2019-05-16T04:25:16.309Z,1014.58
2019-05-16T04:25:53.083Z,1014.58
2019-05-16T04:26:27.121Z,1014.59
2019-05-16T04:27:02.597Z,1014.63
2019-05-16T04:27:41.225Z,1014.58
2019-05-16T04:28:13.187Z,1014.60
2019-05-16T04:28:51.206Z,1014.59
2019-05-16T04:29:24.287Z,1014.63
2019-05-16T04:30:01.623Z,1014.60
2019-05-16T04:30:35.205Z,1014.60
2019-05-16T04:31:11.103Z,1014.59
2019-05-16T04:31:45.981Z,1014.57
2019-05-16T04:32:21.588Z,1014.55
2019-05-16T04:32:57.090Z,1014.61
2019-05-16T04:33:32.273Z,1014.61
2019-05-16T04:34:07.677Z,1014.62
2019-05-16T04:34:43.276Z,1014.58
2019-05-16T04:35:21.136Z,1014.60
2019-05-16T04:35:53.574Z,1014.58
2019-05-16T04:36:29.077Z,1014.61
2019-05-16T04:37:04.253Z,1014.63
2019-05-16T04:37:42.198Z,1014.61
2019-05-16T04:38:30.227Z,1014.59
2019-05-16T04:38:51.200Z,1014.64
2019-05-16T04:39:25.329Z,1014.63
2019-05-16T04:40:01.319Z,1014.61
2019-05-16T04:40:38.009Z,1014.61
2019-05-16T04:41:11.470Z,1014.62
2019-05-16T04:41:46.255Z,1014.60
2019-05-16T04:42:24.125Z,1014.62
2019-05-16T04:43:01.214Z,1014.58
2019-05-16T04:43:34.513Z,1014.60
2019-05-16T04:44:11.642Z,1014.58
2019-05-16T04:44:44.824Z,1014.62
2019-05-16T04:45:21.124Z,1014.60
2019-05-16T04:45:55.789Z,1014.60
2019-05-16T04:46:31.627Z,1014.58
2019-05-16T04:47:06.797Z,1014.59
2019-05-16T04:47:42.002Z,1014.60
2019-05-16T04:48:17.270Z,1014.58
2019-05-16T04:48:52.584Z,1014.57
2019-05-16T04:49:27.864Z,1014.60
2019-05-16T04:50:03.198Z,1014.58
2019-05-16T04:50:41.774Z,1014.57
2019-05-16T04:51:14.104Z,1014.57
2019-05-16T04:51:51.689Z,1014.58
2019-05-16T04:52:24.586Z,1014.61
2019-05-16T04:53:01.404Z,1014.58
2019-05-16T04:53:35.179Z,1014.59
2019-05-16T04:54:11.374Z,1014.57
2019-05-16T04:54:46.004Z,1014.59
2019-05-16T04:55:21.428Z,1014.57
2019-05-16T04:55:56.706Z,1014.59
2019-05-16T04:56:32.112Z,1014.58
2019-05-16T04:57:07.565Z,1014.62
2019-05-16T04:57:42.969Z,1014.62
2019-05-16T04:58:22.605Z,1014.60
2019-05-16T04:58:53.531Z,1014.63
2019-05-16T04:59:31.180Z,1014.62
2019-05-16T05:00:04.353Z,1014.58
2019-05-16T05:00:42.033Z,1014.63
2019-05-16T05:01:15.143Z,1014.60
2019-05-16T05:01:51.077Z,1014.59
2019-05-16T05:02:25.978Z,1014.57
2019-05-16T05:03:01.688Z,1014.58
2019-05-16T05:03:37.066Z,1014.58
2019-05-16T05:04:15.353Z,1014.57
2019-05-16T05:04:50.698Z,1014.59
2019-05-16T05:05:23.124Z,1014.58
2019-05-16T05:06:00.579Z,1014.56
2019-05-16T05:06:33.454Z,1014.60
2019-05-16T05:07:11.221Z,1014.60
2019-05-16T05:07:44.074Z,1014.56
2019-05-16T05:08:21.946Z,1014.60
2019-05-16T05:08:59.072Z,1014.57
2019-05-16T05:09:31.620Z,1014.58
2019-05-16T05:10:05.409Z,1014.56
2019-05-16T05:10:40.814Z,1014.57
2019-05-16T05:11:16.014Z,1014.59
2019-05-16T05:11:51.930Z,1014.58
2019-05-16T05:12:26.747Z,1014.55
2019-05-16T05:13:02.045Z,1014.54
2019-05-16T05:13:37.602Z,1014.53
2019-05-16T05:14:13.229Z,1014.58
2019-05-16T05:14:50.822Z,1014.54
2019-05-16T05:15:24.054Z,1014.52
2019-05-16T05:16:01.262Z,1014.56
2019-05-16T05:16:34.765Z,1014.54
2019-05-16T05:17:10.660Z,1014.53
2019-05-16T05:17:45.702Z,1014.50
2019-05-16T05:18:21.766Z,1014.55
2019-05-16T05:18:56.928Z,1014.56
2019-05-16T05:19:32.349Z,1014.51
2019-05-16T05:20:10.395Z,1014.49
2019-05-16T05:20:43.178Z,1014.52
2019-05-16T05:21:20.692Z,1014.56
2019-05-16T05:21:53.900Z,1014.54
2019-05-16T05:22:30.484Z,1014.52
2019-05-16T05:23:04.922Z,1014.52
2019-05-16T05:23:40.706Z,1014.53
2019-05-16T05:24:15.653Z,1014.55
2019-05-16T05:24:51.029Z,1014.56
2019-05-16T05:25:26.357Z,1014.56
2019-05-16T05:26:01.880Z,1014.58
2019-05-16T05:26:37.086Z,1014.59
2019-05-16T05:27:12.775Z,1014.52
2019-05-16T05:27:49.938Z,1014.54
2019-05-16T05:28:23.675Z,1014.54
2019-05-16T05:28:59.796Z,1014.51
2019-05-16T05:29:34.221Z,1014.50
2019-05-16T05:30:10.557Z,1014.52
2019-05-16T05:30:45.141Z,1014.50
2019-05-16T05:31:25.114Z,1014.49
2019-05-16T05:31:55.927Z,1014.50
2019-05-16T05:32:31.238Z,1014.49
2019-05-16T05:33:06.529Z,1014.52
2019-05-16T05:33:41.922Z,1014.52
2019-05-16T05:34:19.765Z,1014.49
2019-05-16T05:34:53.140Z,1014.50
2019-05-16T05:35:30.937Z,1014.51
2019-05-16T05:36:03.877Z,1014.46
2019-05-16T05:36:40.875Z,1014.50
2019-05-16T05:37:14.339Z,1014.48
2019-05-16T05:37:50.746Z,1014.45
2019-05-16T05:38:25.238Z,1014.48
2019-05-16T05:39:08.977Z,1014.45
2019-05-16T05:39:35.806Z,1014.45
2019-05-16T05:40:11.064Z,1014.44
2019-05-16T05:40:46.316Z,1014.47
2019-05-16T05:41:21.734Z,1014.43
2019-05-16T05:41:57.147Z,1014.48
2019-05-16T05:42:32.335Z,1014.45
2019-05-16T05:43:10.445Z,1014.47
2019-05-16T05:43:43.470Z,1014.48
2019-05-16T05:44:20.359Z,1014.41
2019-05-16T05:44:54.345Z,1014.48
2019-05-16T05:45:30.594Z,1014.44
2019-05-16T05:46:04.847Z,1014.47
2019-05-16T05:46:40.300Z,1014.52
2019-05-16T05:47:15.672Z,1014.47
2019-05-16T05:47:50.994Z,1014.44
2019-05-16T05:48:26.097Z,1014.51
2019-05-16T05:49:01.615Z,1014.44
2019-05-16T05:49:36.986Z,1014.54
2019-05-16T05:50:12.323Z,1014.46
2019-05-16T05:50:47.708Z,1014.49
2019-05-16T05:51:22.829Z,1014.52
2019-05-16T05:52:00.648Z,1014.50
2019-05-16T05:52:33.481Z,1014.48
2019-05-16T05:53:10.204Z,1014.51
2019-05-16T05:53:44.526Z,1014.47
2019-05-16T05:54:20.418Z,1014.47
2019-05-16T05:54:56.179Z,1014.46
2019-05-16T05:55:31.539Z,1014.46
2019-05-16T05:56:06.793Z,1014.47
2019-05-16T05:56:42.109Z,1014.40
2019-05-16T05:57:17.458Z,1014.51
2019-05-16T05:57:52.642Z,1014.49
2019-05-16T05:58:30.870Z,1014.46
2019-05-16T05:59:03.894Z,1014.45
2019-05-16T05:59:40.438Z,1014.45
2019-05-16T06:00:14.840Z,1014.48
2019-05-16T06:00:51.671Z,1014.46
2019-05-16T06:01:25.782Z,1014.51
2019-05-16T06:02:01.414Z,1014.45
2019-05-16T06:02:36.606Z,1014.43
2019-05-16T06:03:11.966Z,1014.41
2019-05-16T06:03:47.529Z,1014.46
2019-05-16T06:04:22.885Z,1014.47
2019-05-16T06:04:59.712Z,1014.44
2019-05-16T06:05:33.787Z,1014.42
2019-05-16T06:06:10.515Z,1014.43
2019-05-16T06:06:45.057Z,1014.45
2019-05-16T06:07:20.511Z,1014.43
2019-05-16T06:07:55.165Z,1014.42
2019-05-16T06:08:30.530Z,1014.43
2019-05-16T06:09:06.138Z,1014.48
2019-05-16T06:09:52.422Z,1014.41
2019-05-16T06:10:16.390Z,1014.42
2019-05-16T06:10:52.004Z,1014.41
2019-05-16T06:11:27.242Z,1014.43
2019-05-16T06:12:02.735Z,1014.43
2019-05-16T06:12:40.548Z,1014.45
2019-05-16T06:13:13.677Z,1014.45
2019-05-16T06:13:50.062Z,1014.46
2019-05-16T06:14:24.203Z,1014.45
2019-05-16T06:15:07.829Z,1014.45
2019-05-16T06:15:35.561Z,1014.48
2019-05-16T06:16:10.994Z,1014.44
2019-05-16T06:16:46.082Z,1014.41
2019-05-16T06:17:21.302Z,1014.37
2019-05-16T06:17:56.708Z,1014.44
2019-05-16T06:18:31.819Z,1014.41
2019-05-16T06:19:06.927Z,1014.41
2019-05-16T06:19:42.483Z,1014.42
2019-05-16T06:20:20.126Z,1014.39
2019-05-16T06:20:52.942Z,1014.40
2019-05-16T06:21:32.972Z,1014.42
2019-05-16T06:22:03.572Z,1014.37
2019-05-16T06:22:40.278Z,1014.39
2019-05-16T06:23:14.568Z,1014.36
2019-05-16T06:23:50.870Z,1014.37
2019-05-16T06:24:25.520Z,1014.37
2019-05-16T06:25:01.127Z,1014.34
2019-05-16T06:25:36.297Z,1014.35
2019-05-16T06:26:12.445Z,1014.31
2019-05-16T06:26:47.361Z,1014.33
2019-05-16T06:27:22.690Z,1014.34
2019-05-16T06:28:00.057Z,1014.32
2019-05-16T06:28:33.650Z,1014.34
2019-05-16T06:29:10.360Z,1014.30
2019-05-16T06:29:44.742Z,1014.31
2019-05-16T06:30:21.410Z,1014.28
2019-05-16T06:30:55.478Z,1014.26
2019-05-16T06:31:31.447Z,1014.25
2019-05-16T06:32:06.612Z,1014.26
2019-05-16T06:32:41.731Z,1014.29
2019-05-16T06:33:17.060Z,1014.30
2019-05-16T06:33:52.293Z,1014.31
2019-05-16T06:34:30.022Z,1014.29
2019-05-16T06:35:03.112Z,1014.30
2019-05-16T06:35:40.235Z,1014.27
2019-05-16T06:36:15.058Z,1014.28
2019-05-16T06:36:50.899Z,1014.32
2019-05-16T06:37:25.930Z,1014.31
2019-05-16T06:38:01.528Z,1014.31
2019-05-16T06:38:37.282Z,1014.28
2019-05-16T06:39:12.724Z,1014.30
2019-05-16T06:39:50.114Z,1014.31
2019-05-16T06:40:23.204Z,1014.31
2019-05-16T06:41:00.366Z,1014.34
2019-05-16T06:41:33.834Z,1014.28
2019-05-16T06:42:09.796Z,1014.28
2019-05-16T06:42:45.157Z,1014.31
2019-05-16T06:43:20.818Z,1014.28
2019-05-16T06:43:55.970Z,1014.32
2019-05-16T06:44:31.395Z,1014.30
2019-05-16T06:45:06.686Z,1014.32
2019-05-16T06:45:42.116Z,1014.31
2019-05-16T06:46:19.966Z,1014.28
2019-05-16T06:47:08.270Z,1014.27
2019-05-16T06:47:30.347Z,1014.27
2019-05-16T06:48:04.345Z,1014.27
2019-05-16T06:48:39.910Z,1014.27
2019-05-16T06:49:14.971Z,1014.29
2019-05-16T06:49:50.977Z,1014.25
2019-05-16T06:50:25.586Z,1014.24
2019-05-16T06:51:02.916Z,1014.25
2019-05-16T06:51:36.491Z,1014.26
2019-05-16T06:52:11.933Z,1014.25
2019-05-16T06:52:49.982Z,1014.23
2019-05-16T06:53:22.558Z,1014.28
2019-05-16T06:54:00.367Z,1014.25
2019-05-16T06:54:33.295Z,1014.23
2019-05-16T06:55:10.105Z,1014.23
2019-05-16T06:55:44.276Z,1014.27
2019-05-16T06:56:20.075Z,1014.27
2019-05-16T06:56:55.120Z,1014.27
2019-05-16T06:57:30.659Z,1014.25
2019-05-16T06:58:05.859Z,1014.31
2019-05-16T06:58:47.773Z,1014.25
2019-05-16T06:59:16.663Z,1014.28
2019-05-16T06:59:52.082Z,1014.26
2019-05-16T07:00:29.909Z,1014.23
2019-05-16T07:01:03.540Z,1014.24
2019-05-16T07:01:40.275Z,1014.27
2019-05-16T07:02:26.744Z,1014.23
2019-05-16T07:02:50.019Z,1014.26
2019-05-16T07:03:23.823Z,1014.20
2019-05-16T07:04:00.138Z,1014.19
2019-05-16T07:04:34.932Z,1014.19
2019-05-16T07:05:10.409Z,1014.18
2019-05-16T07:05:45.942Z,1014.17
2019-05-16T07:06:45.680Z,1014.17
2019-05-16T07:07:00.027Z,1014.15
2019-05-16T07:07:31.822Z,1014.15